Time;durP1;ratioP1;P1;durP2;ratioP2;P2;SDS_P1;SDS_P2;PMS_P1;PMS_P2;Temp;Humidity;BMP_temperature;BMP_pressure;BME280_temperature;BME280_humidity;BME280_pressure;Samples;Min_cycle;Max_cycle;Signal;HPM_P1;HPM_P2
2022/06/17 00:01:39;;;;;;;2.60;2.37;;;;;;;;;;4913194;28;20461;-57
2022/06/17 00:04:05;;;;;;;2.37;2.00;;;;;;;;;;4953437;28;20435;-57
2022/06/17 00:06:33;;;;;;;2.23;1.87;;;;;;;;;;4949610;28;21419;-58
2022/06/17 00:08:59;;;;;;;2.60;2.20;;;;;;;;;;4950342;28;20443;-57
2022/06/17 00:11:27;;;;;;;3.37;2.13;;;;;;;;;;4930517;28;20497;-58
2022/06/17 00:13:53;;;;;;;4.77;2.37;;;;;;;;;;4936054;29;20491;-58
2022/06/17 00:16:20;;;;;;;3.10;2.10;;;;;;;;;;4949068;28;20502;-57
2022/06/17 00:18:46;;;;;;;2.13;1.93;;;;;;;;;;4955525;28;20430;-58
2022/06/17 00:21:32;;;;;;;2.30;2.10;;;;;;;;;;4927137;28;20442;-57
2022/06/17 00:24:01;;;;;;;4.53;2.53;;;;;;;;;;4951756;28;20431;-57
2022/06/17 00:26:27;;;;;;;2.47;2.03;;;;;;;;;;4949337;28;20453;-56
2022/06/17 00:28:53;;;;;;;1.90;1.57;;;;;;;;;;4957099;28;20427;-55
2022/06/17 00:31:20;;;;;;;3.33;2.40;;;;;;;;;;4908020;28;20218;-57
2022/06/17 00:33:45;;;;;;;3.47;1.93;;;;;;;;;;4959181;28;20914;-57
2022/06/17 00:36:15;;;;;;;5.20;2.80;;;;;;;;;;4948116;28;20988;-56
2022/06/17 00:38:42;;;;;;;2.30;1.60;;;;;;;;;;4945270;28;20601;-57
2022/06/17 00:41:14;;;;;;;3.17;2.30;;;;;;;;;;4943251;28;20496;-56
2022/06/17 00:43:40;;;;;;;3.97;2.40;;;;;;;;;;4956703;28;20448;-57
2022/06/17 00:46:17;;;;;;;3.87;2.20;;;;;;;;;;4945812;28;20479;-57
2022/06/17 00:49:07;;;;;;;3.53;2.20;;;;;;;;;;4944983;28;21031;-57
2022/06/17 00:51:35;;;;;;;2.80;2.20;;;;;;;;;;4930534;28;20583;-57
2022/06/17 00:54:21;;;;;;;3.90;2.53;;;;;;;;;;4949972;28;21021;-57
2022/06/17 00:56:47;;;;;;;2.70;1.90;;;;;;;;;;4946822;28;20443;-57
2022/06/17 00:59:13;;;;;;;2.23;1.97;;;;;;;;;;4946930;28;20526;-57
2022/06/17 01:01:42;;;;;;;2.90;2.30;;;;;;;;;;4912394;28;20215;-55
2022/06/17 01:04:09;;;;;;;4.30;2.03;;;;;;;;;;4951831;28;20842;-57
2022/06/17 01:06:36;;;;;;;3.00;2.20;;;;;;;;;;4944524;28;20431;-57
2022/06/17 01:11:52;;;;;;;3.27;2.20;;;;;;;;;;4939774;28;20445;-56
2022/06/17 01:14:18;;;;;;;3.20;2.47;;;;;;;;;;4950503;28;20924;-56
2022/06/17 01:16:44;;;;;;;2.40;1.83;;;;;;;;;;4939941;28;20453;-56
2022/06/17 01:19:13;;;;;;;2.87;2.43;;;;;;;;;;4951923;28;20434;-56
2022/06/17 01:21:41;;;;;;;2.47;1.97;;;;;;;;;;4929866;28;20448;-57
2022/06/17 01:24:08;;;;;;;3.87;2.20;;;;;;;;;;4951679;28;20443;-56
2022/06/17 01:26:34;;;;;;;3.87;2.27;;;;;;;;;;4935436;28;20454;-57
2022/06/17 01:29:01;;;;;;;2.33;1.77;;;;;;;;;;4948349;28;20934;-57
2022/06/17 01:31:27;;;;;;;2.73;2.43;;;;;;;;;;4928860;28;20491;-56
2022/06/17 01:33:53;;;;;;;2.67;2.30;;;;;;;;;;4954170;28;20561;-57
2022/06/17 01:36:27;;;;;;;5.00;2.10;;;;;;;;;;4916199;28;20446;-56
2022/06/17 01:38:57;;;;;;;3.53;2.03;;;;;;;;;;4944410;28;20447;-57
2022/06/17 01:41:29;;;;;;;3.00;1.97;;;;;;;;;;4942578;28;20486;-56
2022/06/17 01:43:56;;;;;;;2.67;2.10;;;;;;;;;;4946825;28;20439;-56
2022/06/17 01:46:36;;;;;;;5.53;2.47;;;;;;;;;;4946585;28;20427;-57
2022/06/17 01:49:08;;;;;;;1.97;1.77;;;;;;;;;;4962929;28;20462;-57
2022/06/17 01:51:34;;;;;;;2.40;2.20;;;;;;;;;;4933021;28;20547;-56
2022/06/17 01:54:01;;;;;;;2.40;2.20;;;;;;;;;;4948876;28;20668;-56
2022/06/17 01:56:34;;;;;;;2.33;2.13;;;;;;;;;;4942729;28;20443;-56
2022/06/17 01:59:10;;;;;;;2.27;2.07;;;;;;;;;;4945989;28;21241;-56
2022/06/17 02:01:37;;;;;;;3.40;2.00;;;;;;;;;;4946108;28;20518;-57
2022/06/17 02:04:08;;;;;;;2.53;2.03;;;;;;;;;;4950718;28;20495;-57
2022/06/17 02:06:48;;;;;;;2.60;2.10;;;;;;;;;;4905320;28;20593;-57
2022/06/17 02:09:14;;;;;;;3.87;2.10;;;;;;;;;;4952499;28;20829;-56
2022/06/17 02:11:40;;;;;;;3.60;2.50;;;;;;;;;;4932206;28;20483;-57
2022/06/17 02:14:08;;;;;;;2.70;2.20;;;;;;;;;;4949957;28;20427;-56
2022/06/17 02:16:36;;;;;;;3.90;2.50;;;;;;;;;;4947187;28;20526;-57
2022/06/17 02:19:03;;;;;;;2.43;1.67;;;;;;;;;;4952681;28;20518;-56
2022/06/17 02:21:30;;;;;;;2.60;2.03;;;;;;;;;;4930851;28;20582;-56
2022/06/17 02:23:56;;;;;;;3.30;2.60;;;;;;;;;;4950225;28;20427;-56
2022/06/17 02:26:22;;;;;;;4.10;2.50;;;;;;;;;;4941588;28;20455;-57
2022/06/17 02:28:49;;;;;;;3.80;2.03;;;;;;;;;;4949936;28;20570;-56
2022/06/17 02:31:15;;;;;;;2.77;2.30;;;;;;;;;;4934000;28;20537;-56
2022/06/17 02:33:41;;;;;;;2.80;2.10;;;;;;;;;;4946008;28;20443;-56
2022/06/17 02:36:18;;;;;;;3.30;2.20;;;;;;;;;;4931068;28;20521;-56
2022/06/17 02:38:45;;;;;;;6.50;2.20;;;;;;;;;;4949380;28;20430;-56
2022/06/17 02:41:19;;;;;;;3.03;2.30;;;;;;;;;;4939677;28;20529;-56
2022/06/17 02:44:05;;;;;;;2.73;2.27;;;;;;;;;;4949633;28;20439;-56
2022/06/17 02:46:39;;;;;;;2.90;2.33;;;;;;;;;;4948665;28;20439;-56
2022/06/17 02:49:07;;;;;;;2.90;2.07;;;;;;;;;;4954106;28;20502;-56
2022/06/17 02:51:34;;;;;;;3.67;2.73;;;;;;;;;;4947705;28;20485;-56
2022/06/17 02:54:00;;;;;;;3.87;2.43;;;;;;;;;;4946670;28;20446;-56
2022/06/17 02:56:28;;;;;;;2.37;2.13;;;;;;;;;;4938922;28;20545;-56
2022/06/17 02:58:56;;;;;;;2.43;2.13;;;;;;;;;;4955904;28;20434;-56
2022/06/17 03:01:24;;;;;;;2.90;2.60;;;;;;;;;;4935630;28;20517;-56
2022/06/17 03:03:50;;;;;;;4.43;2.33;;;;;;;;;;4953363;28;21110;-56
2022/06/17 03:06:18;;;;;;;6.00;2.40;;;;;;;;;;4942467;28;20493;-57
2022/06/17 03:08:45;;;;;;;3.17;2.83;;;;;;;;;;4949030;28;20461;-57
2022/06/17 03:11:12;;;;;;;2.37;2.17;;;;;;;;;;4946893;28;20482;-55
2022/06/17 03:13:40;;;;;;;3.70;2.20;;;;;;;;;;4943398;28;20532;-57
2022/06/17 03:16:06;;;;;;;2.70;2.20;;;;;;;;;;4924559;28;24465;-56
2022/06/17 03:18:32;;;;;;;2.97;2.40;;;;;;;;;;4938320;28;20492;-57
2022/06/17 03:20:58;;;;;;;2.70;2.27;;;;;;;;;;4938095;28;20459;-56
2022/06/17 03:23:25;;;;;;;3.00;2.30;;;;;;;;;;4938967;28;21311;-57
2022/06/17 03:26:13;;;;;;;5.00;2.60;;;;;;;;;;4949634;28;20454;-56
2022/06/17 03:28:48;;;;;;;2.33;2.00;;;;;;;;;;4948661;28;20470;-57
2022/06/17 03:31:33;;;;;;;3.80;2.93;;;;;;;;;;4936122;28;20491;-57
2022/06/17 03:34:01;;;;;;;2.93;2.50;;;;;;;;;;4955330;28;20442;-62
2022/06/17 03:36:29;;;;;;;3.53;2.23;;;;;;;;;;4945125;28;20461;-57
2022/06/17 03:38:56;;;;;;;2.57;2.10;;;;;;;;;;4950995;28;20535;-56
2022/06/17 03:41:30;;;;;;;2.97;2.17;;;;;;;;;;4933048;28;20840;-57
2022/06/17 03:44:01;;;;;;;2.80;2.50;;;;;;;;;;4947815;28;20438;-57
2022/06/17 03:46:27;;;;;;;4.00;2.43;;;;;;;;;;4916135;28;22154;-57
2022/06/17 03:48:59;;;;;;;2.80;2.20;;;;;;;;;;4952140;28;20494;-58
2022/06/17 03:51:25;;;;;;;2.20;2.00;;;;;;;;;;4948090;28;20765;-56
2022/06/17 03:53:51;;;;;;;2.33;2.13;;;;;;;;;;4951831;28;20457;-57
2022/06/17 03:56:18;;;;;;;3.07;2.60;;;;;;;;;;4948978;28;20442;-57
2022/06/17 03:58:44;;;;;;;2.73;2.40;;;;;;;;;;4951557;28;20435;-56
2022/06/17 04:01:23;;;;;;;3.00;2.40;;;;;;;;;;4934279;28;20447;-57
2022/06/17 04:03:51;;;;;;;4.10;2.73;;;;;;;;;;4967875;28;20765;-56
2022/06/17 04:06:18;;;;;;;2.63;2.43;;;;;;;;;;4944569;28;20438;-56
2022/06/17 04:08:50;;;;;;;3.70;2.87;;;;;;;;;;4966273;28;20443;-58
2022/06/17 04:11:20;;;;;;;4.47;2.63;;;;;;;;;;4961975;28;20565;-57
2022/06/17 04:13:46;;;;;;;3.80;2.47;;;;;;;;;;4949702;28;20462;-56
2022/06/17 04:16:18;;;;;;;3.70;2.67;;;;;;;;;;4931399;28;21032;-56
2022/06/17 04:18:44;;;;;;;3.50;2.63;;;;;;;;;;4947954;28;20442;-57
2022/06/17 04:21:12;;;;;;;4.57;3.20;;;;;;;;;;4937703;28;20912;-57
2022/06/17 04:23:37;;;;;;;4.37;3.00;;;;;;;;;;4946244;28;20630;-58
2022/06/17 04:26:12;;;;;;;4.83;2.93;;;;;;;;;;4942437;28;20544;-56
2022/06/17 04:28:42;;;;;;;4.40;3.13;;;;;;;;;;4941847;28;20426;-57
2022/06/17 04:31:13;;;;;;;6.43;3.20;;;;;;;;;;4952039;28;20579;-56
2022/06/17 04:33:44;;;;;;;7.50;3.30;;;;;;;;;;4945269;28;20465;-57
2022/06/17 04:36:26;;;;;;;3.70;3.10;;;;;;;;;;4944690;28;20470;-58
2022/06/17 04:38:56;;;;;;;3.20;2.73;;;;;;;;;;4947117;28;20439;-57
2022/06/17 04:41:22;;;;;;;3.00;2.60;;;;;;;;;;4930391;28;20499;-57
2022/06/17 04:43:48;;;;;;;4.13;2.73;;;;;;;;;;4942337;28;20442;-56
2022/06/17 04:46:23;;;;;;;3.47;2.70;;;;;;;;;;4941652;28;20990;-58
2022/06/17 04:48:49;;;;;;;2.63;2.43;;;;;;;;;;4958465;28;20445;-56
2022/06/17 04:51:15;;;;;;;2.63;2.43;;;;;;;;;;4927219;28;20471;-62
2022/06/17 04:53:45;;;;;;;2.90;2.50;;;;;;;;;;4944656;28;20458;-56
2022/06/17 04:56:15;;;;;;;4.97;3.23;;;;;;;;;;4941445;28;20478;-57
2022/06/17 04:58:41;;;;;;;2.80;2.40;;;;;;;;;;4934567;28;20439;-58
2022/06/17 05:01:12;;;;;;;5.17;3.73;;;;;;;;;;4939714;28;20517;-61
2022/06/17 05:03:38;;;;;;;7.00;3.47;;;;;;;;;;4943974;28;20462;-57
2022/06/17 05:06:05;;;;;;;2.90;2.70;;;;;;;;;;4945769;28;20443;-58
2022/06/17 05:08:32;;;;;;;2.40;2.20;;;;;;;;;;4943451;28;20433;-59
2022/06/17 05:11:03;;;;;;;3.50;2.73;;;;;;;;;;4944532;28;20562;-56
2022/06/17 05:13:31;;;;;;;5.37;2.43;;;;;;;;;;4939771;28;20545;-58
2022/06/17 05:15:57;;;;;;;2.43;1.93;;;;;;;;;;4950096;28;20854;-57
2022/06/17 05:18:23;;;;;;;5.60;3.50;;;;;;;;;;4947555;28;20469;-56
2022/06/17 05:21:00;;;;;;;4.83;2.17;;;;;;;;;;4943801;28;20435;-57
2022/06/17 05:23:30;;;;;;;3.10;2.60;;;;;;;;;;4940488;28;20449;-57
2022/06/17 05:25:56;;;;;;;3.67;3.23;;;;;;;;;;4932814;28;20993;-57
2022/06/17 05:28:26;;;;;;;2.70;2.50;;;;;;;;;;4930509;28;20430;-57
2022/06/17 05:31:08;;;;;;;3.97;2.40;;;;;;;;;;4943798;28;20507;-57
2022/06/17 05:33:37;;;;;;;3.50;2.40;;;;;;;;;;4946703;28;20513;-57
2022/06/17 05:36:04;;;;;;;2.87;2.40;;;;;;;;;;4949488;28;20497;-57
2022/06/17 05:38:30;;;;;;;2.37;2.10;;;;;;;;;;4947751;28;20502;-57
2022/06/17 05:41:05;;;;;;;4.00;2.67;;;;;;;;;;4945821;28;20788;-58
2022/06/17 05:43:32;;;;;;;3.77;2.23;;;;;;;;;;4937598;28;20451;-57
2022/06/17 05:45:58;;;;;;;3.23;2.37;;;;;;;;;;4947873;28;20807;-57
2022/06/17 05:48:24;;;;;;;3.73;2.30;;;;;;;;;;4948119;28;20968;-57
2022/06/17 05:50:50;;;;;;;2.90;2.30;;;;;;;;;;4945379;28;20786;-57
2022/06/17 05:53:16;;;;;;;3.43;1.90;;;;;;;;;;4937154;28;20794;-56
2022/06/17 05:56:16;;;;;;;3.33;2.20;;;;;;;;;;4947899;28;20427;-57
2022/06/17 05:58:46;;;;;;;2.80;2.10;;;;;;;;;;4939977;28;20449;-57
2022/06/17 06:01:12;;;;;;;3.30;2.53;;;;;;;;;;4929838;28;20451;-56
2022/06/17 06:03:38;;;;;;;3.93;2.03;;;;;;;;;;4950202;28;20423;-56
2022/06/17 06:06:05;;;;;;;3.30;2.70;;;;;;;;;;4949209;28;20284;-58
2022/06/17 06:08:30;;;;;;;3.27;2.50;;;;;;;;;;4948578;28;20183;-57
2022/06/17 06:11:04;;;;;;;2.43;2.23;;;;;;;;;;4941785;28;20485;-57
2022/06/17 06:13:30;;;;;;;4.10;3.70;;;;;;;;;;4939437;28;20469;-58
2022/06/17 06:15:56;;;;;;;6.33;3.40;;;;;;;;;;4928507;28;20728;-60
2022/06/17 06:18:23;;;;;;;4.20;2.23;;;;;;;;;;4930442;28;20467;-57
2022/06/17 06:21:05;;;;;;;3.43;2.40;;;;;;;;;;4942650;28;20521;-57
2022/06/17 06:23:36;;;;;;;3.00;2.57;;;;;;;;;;4939362;28;20459;-59
2022/06/17 06:26:02;;;;;;;2.53;2.33;;;;;;;;;;4948627;28;20466;-57
2022/06/17 06:28:28;;;;;;;2.90;2.60;;;;;;;;;;4942773;28;20510;-57
2022/06/17 06:31:09;;;;;;;3.90;2.73;;;;;;;;;;4932563;28;20478;-58
2022/06/17 06:33:35;;;;;;;3.53;2.30;;;;;;;;;;4934292;28;20462;-58
2022/06/17 06:36:01;;;;;;;5.43;2.50;;;;;;;;;;4944256;28;20478;-56
2022/06/17 06:38:30;;;;;;;5.20;2.73;;;;;;;;;;4947259;28;21033;-56
2022/06/17 06:40:56;;;;;;;4.13;2.67;;;;;;;;;;4942466;28;20441;-56
2022/06/17 06:43:22;;;;;;;4.30;2.60;;;;;;;;;;4942619;28;20451;-58
2022/06/17 06:45:49;;;;;;;2.83;2.57;;;;;;;;;;4949554;28;20478;-57
2022/06/17 06:48:16;;;;;;;5.83;3.40;;;;;;;;;;4937012;28;21035;-57
2022/06/17 06:50:42;;;;;;;9.70;3.10;;;;;;;;;;4930515;29;20478;-58
2022/06/17 06:53:08;;;;;;;3.00;2.23;;;;;;;;;;4933838;28;20538;-57
2022/06/17 06:55:34;;;;;;;5.90;3.10;;;;;;;;;;4946610;28;20945;-57
2022/06/17 06:58:02;;;;;;;4.00;2.97;;;;;;;;;;4946448;28;20813;-56
2022/06/17 07:00:35;;;;;;;3.87;2.53;;;;;;;;;;4949031;28;20451;-57
2022/06/17 07:03:02;;;;;;;4.83;2.97;;;;;;;;;;4915015;28;20443;-56
2022/06/17 07:05:28;;;;;;;6.70;3.23;;;;;;;;;;4962241;28;20434;-57
2022/06/17 07:07:54;;;;;;;5.90;2.93;;;;;;;;;;4946266;28;20793;-57
2022/06/17 07:10:25;;;;;;;5.17;2.90;;;;;;;;;;4949040;28;20880;-56
2022/06/17 07:12:51;;;;;;;5.30;3.33;;;;;;;;;;4945833;28;20454;-57
2022/06/17 07:15:17;;;;;;;6.37;3.50;;;;;;;;;;4953959;28;20451;-57
2022/06/17 07:17:56;;;;;;;4.33;3.23;;;;;;;;;;4939888;28;21018;-57
2022/06/17 07:20:23;;;;;;;6.80;3.20;;;;;;;;;;4954818;28;20521;-57
2022/06/17 07:22:49;;;;;;;5.17;3.30;;;;;;;;;;4914555;29;20502;-56
2022/06/17 07:25:15;;;;;;;3.17;2.87;;;;;;;;;;4936261;28;20505;-57
2022/06/17 07:27:41;;;;;;;3.77;3.27;;;;;;;;;;4949542;28;20741;-57
2022/06/17 07:30:08;;;;;;;6.30;3.80;;;;;;;;;;4954012;28;20485;-58
2022/06/17 07:32:34;;;;;;;5.07;3.80;;;;;;;;;;4915083;28;20899;-57
2022/06/17 07:34:59;;;;;;;5.13;3.20;;;;;;;;;;4954537;28;20559;-57
2022/06/17 07:40:10;;;;;;;5.97;3.77;;;;;;;;;;4951421;28;20489;-56
2022/06/17 07:42:39;;;;;;;3.73;3.37;;;;;;;;;;4933664;28;20906;-58
2022/06/17 07:45:06;;;;;;;3.00;2.73;;;;;;;;;;4953541;28;20478;-58
2022/06/17 07:47:33;;;;;;;3.53;3.00;;;;;;;;;;4927834;28;20670;-58
2022/06/17 07:49:59;;;;;;;4.77;3.97;;;;;;;;;;4952586;28;21019;-56
2022/06/17 07:52:25;;;;;;;4.97;3.30;;;;;;;;;;4947198;28;20531;-55
2022/06/17 07:54:51;;;;;;;4.60;3.53;;;;;;;;;;4958996;28;20753;-56
2022/06/17 07:57:17;;;;;;;4.50;3.17;;;;;;;;;;4946229;28;20635;-58
2022/06/17 07:59:43;;;;;;;5.73;3.50;;;;;;;;;;4947208;28;20489;-58
2022/06/17 08:02:21;;;;;;;4.80;3.73;;;;;;;;;;4926962;28;20746;-58
2022/06/17 08:04:49;;;;;;;4.63;4.10;;;;;;;;;;4952014;28;20435;-57
2022/06/17 08:07:15;;;;;;;7.07;3.30;;;;;;;;;;4949373;28;20504;-57
2022/06/17 08:09:41;;;;;;;9.27;4.60;;;;;;;;;;4948762;28;20455;-55
2022/06/17 08:12:11;;;;;;;3.57;3.27;;;;;;;;;;4947566;28;20465;-57
2022/06/17 08:14:43;;;;;;;4.70;3.80;;;;;;;;;;4949127;28;20459;-57
2022/06/17 08:17:19;;;;;;;6.80;3.40;;;;;;;;;;4941663;28;20819;-58
2022/06/17 08:19:52;;;;;;;8.17;3.20;;;;;;;;;;4949853;28;20752;-56
2022/06/17 08:22:25;;;;;;;4.10;3.30;;;;;;;;;;4933889;28;21408;-57
2022/06/17 08:24:55;;;;;;;5.93;3.33;;;;;;;;;;4948194;28;20986;-58
2022/06/17 08:27:21;;;;;;;5.00;3.40;;;;;;;;;;4942935;28;20981;-58
2022/06/17 08:29:47;;;;;;;5.23;3.23;;;;;;;;;;4953376;28;20442;-56
2022/06/17 08:35:05;;;;;;;3.40;2.63;;;;;;;;;;4949637;28;20450;-57
2022/06/17 08:37:31;;;;;;;4.13;2.90;;;;;;;;;;4914780;28;20455;-56
2022/06/17 08:39:57;;;;;;;3.13;2.40;;;;;;;;;;4952438;28;20562;-57
2022/06/17 08:42:26;;;;;;;6.63;2.53;;;;;;;;;;4946635;28;20434;-56
2022/06/17 08:44:57;;;;;;;4.50;3.10;;;;;;;;;;4944023;28;20484;-56
2022/06/17 08:47:37;;;;;;;3.27;2.97;;;;;;;;;;4945307;28;20776;-56
2022/06/17 08:50:06;;;;;;;3.70;3.00;;;;;;;;;;4945262;28;20478;-57
2022/06/17 08:52:32;;;;;;;3.07;2.73;;;;;;;;;;4929427;28;20441;-57
2022/06/17 08:55:01;;;;;;;3.13;2.50;;;;;;;;;;4952878;28;20435;-56
2022/06/17 08:57:29;;;;;;;3.90;2.40;;;;;;;;;;4947677;28;20422;-58
2022/06/17 08:59:59;;;;;;;4.03;3.10;;;;;;;;;;4935109;29;20458;-57
2022/06/17 09:02:30;;;;;;;5.63;3.33;;;;;;;;;;4925390;28;20780;-58
2022/06/17 09:04:59;;;;;;;3.60;3.00;;;;;;;;;;4953250;28;21087;-58
2022/06/17 09:07:31;;;;;;;3.43;3.13;;;;;;;;;;4942500;28;20497;-58
2022/06/17 09:10:06;;;;;;;3.67;3.10;;;;;;;;;;4952105;28;20578;-56
2022/06/17 09:12:36;;;;;;;6.63;3.53;;;;;;;;;;4911966;28;20454;-57
2022/06/17 09:15:21;;;;;;;4.57;3.80;;;;;;;;;;4951545;28;20491;-62
2022/06/17 09:18:10;;;;;;;4.33;2.90;;;;;;;;;;4931334;28;20435;-59
2022/06/17 09:20:37;;;;;;;7.17;3.20;;;;;;;;;;4940125;28;20494;-57
2022/06/17 09:23:05;;;;;;;4.80;3.50;;;;;;;;;;4946686;28;20534;-57
2022/06/17 09:25:38;;;;;;;6.50;4.50;;;;;;;;;;4951254;28;20537;-57
2022/06/17 09:28:10;;;;;;;4.13;3.73;;;;;;;;;;4937486;28;20470;-58
2022/06/17 09:30:39;;;;;;;6.47;3.50;;;;;;;;;;4950413;28;20486;-57
2022/06/17 09:33:10;;;;;;;3.83;3.10;;;;;;;;;;4917943;29;20485;-57
2022/06/17 09:35:44;;;;;;;5.40;3.60;;;;;;;;;;4949922;28;20431;-57
2022/06/17 09:38:30;;;;;;;3.90;3.47;;;;;;;;;;4947043;28;20915;-58
2022/06/17 09:40:57;;;;;;;5.00;3.10;;;;;;;;;;4942629;28;20428;-57
2022/06/17 09:43:30;;;;;;;3.67;3.10;;;;;;;;;;4923389;28;20877;-57
2022/06/17 09:46:01;;;;;;;3.97;3.30;;;;;;;;;;4957749;28;20470;-58
2022/06/17 09:48:29;;;;;;;3.00;2.80;;;;;;;;;;4939526;28;20538;-58
2022/06/17 09:50:59;;;;;;;4.00;3.00;;;;;;;;;;4950391;28;20484;-57
2022/06/17 09:53:26;;;;;;;8.07;3.73;;;;;;;;;;4928951;28;20461;-56
2022/06/17 09:55:54;;;;;;;4.50;3.00;;;;;;;;;;4951509;28;20877;-57
2022/06/17 09:58:29;;;;;;;3.60;3.27;;;;;;;;;;4932338;28;20446;-57
2022/06/17 10:00:56;;;;;;;3.10;2.80;;;;;;;;;;4947836;28;20443;-58
2022/06/17 10:03:28;;;;;;;3.87;2.97;;;;;;;;;;4945527;28;20932;-58
2022/06/17 10:06:13;;;;;;;3.90;3.13;;;;;;;;;;4951168;28;20446;-59
2022/06/17 10:08:39;;;;;;;6.93;3.10;;;;;;;;;;4930886;28;20469;-57
2022/06/17 10:11:05;;;;;;;3.40;3.10;;;;;;;;;;4951241;28;20482;-57
2022/06/17 10:13:43;;;;;;;4.20;3.07;;;;;;;;;;4938548;28;20453;-58
2022/06/17 10:19:10;;;;;;;6.63;3.70;;;;;;;;;;4920271;28;20476;-58
2022/06/17 10:21:54;;;;;;;4.13;3.30;;;;;;;;;;4950427;28;20453;-58
2022/06/17 10:24:31;;;;;;;3.23;2.80;;;;;;;;;;4948268;28;20949;-58
2022/06/17 10:27:13;;;;;;;4.47;3.20;;;;;;;;;;4942403;28;20980;-58
2022/06/17 10:29:54;;;;;;;2.70;2.50;;;;;;;;;;4945211;28;21008;-58
2022/06/17 10:32:20;;;;;;;3.20;2.90;;;;;;;;;;4934658;28;20458;-59
2022/06/17 10:34:52;;;;;;;4.10;3.23;;;;;;;;;;4949675;28;20443;-58
2022/06/17 10:37:25;;;;;;;3.70;3.40;;;;;;;;;;4940189;28;20462;-57
2022/06/17 10:39:55;;;;;;;3.77;3.37;;;;;;;;;;4950881;28;20433;-57
2022/06/17 10:42:21;;;;;;;7.37;3.07;;;;;;;;;;4950093;28;20443;-58
2022/06/17 10:44:48;;;;;;;3.13;2.80;;;;;;;;;;4968193;28;20176;-58
2022/06/17 10:47:17;;;;;;;5.17;2.73;;;;;;;;;;4947147;28;20447;-57
2022/06/17 10:49:53;;;;;;;5.53;3.00;;;;;;;;;;4964297;28;20429;-58
2022/06/17 10:52:25;;;;;;;3.47;2.43;;;;;;;;;;4920039;28;20462;-57
2022/06/17 10:54:54;;;;;;;2.87;2.50;;;;;;;;;;4968407;28;20439;-56
2022/06/17 10:57:25;;;;;;;4.70;2.33;;;;;;;;;;4946878;28;20427;-58
2022/06/17 10:59:51;;;;;;;2.80;2.43;;;;;;;;;;4956580;28;20442;-57
2022/06/17 11:02:30;;;;;;;4.43;3.33;;;;;;;;;;4943631;28;22474;-60
2022/06/17 11:05:00;;;;;;;4.23;2.73;;;;;;;;;;4957703;28;20597;-57
2022/06/17 11:07:33;;;;;;;6.00;2.70;;;;;;;;;;4948380;28;21294;-56
2022/06/17 11:09:59;;;;;;;4.40;2.80;;;;;;;;;;4957574;28;21019;-56
2022/06/17 11:12:28;;;;;;;4.40;2.40;;;;;;;;;;4951423;28;20712;-57
2022/06/17 11:14:55;;;;;;;2.33;2.13;;;;;;;;;;4957254;28;20175;-57
2022/06/17 11:17:30;;;;;;;3.83;2.87;;;;;;;;;;4951037;28;20451;-58
2022/06/17 11:19:57;;;;;;;3.57;2.70;;;;;;;;;;4953043;28;20434;-57
2022/06/17 11:22:35;;;;;;;3.70;2.40;;;;;;;;;;4946880;28;20752;-58
2022/06/17 11:25:07;;;;;;;2.77;2.30;;;;;;;;;;4951808;28;20469;-58
2022/06/17 11:27:41;;;;;;;2.80;2.50;;;;;;;;;;4918613;28;20576;-57
2022/06/17 11:30:13;;;;;;;2.80;2.17;;;;;;;;;;4955960;28;20480;-58
2022/06/17 11:32:41;;;;;;;2.70;2.10;;;;;;;;;;4950616;28;20427;-58
2022/06/17 11:35:19;;;;;;;3.17;2.30;;;;;;;;;;4948169;28;20466;-54
2022/06/17 11:37:46;;;;;;;2.63;1.80;;;;;;;;;;4933704;28;20436;-55
2022/06/17 11:40:12;;;;;;;3.40;2.30;;;;;;;;;;4951804;28;20303;-54
2022/06/17 11:42:48;;;;;;;2.60;2.10;;;;;;;;;;4950148;28;20426;-55
2022/06/17 11:45:16;;;;;;;4.53;2.33;;;;;;;;;;4953866;28;20502;-54
2022/06/17 11:47:43;;;;;;;5.33;2.10;;;;;;;;;;4948708;28;20447;-55
2022/06/17 11:50:30;;;;;;;3.43;2.03;;;;;;;;;;4951031;28;20482;-53
2022/06/17 11:53:00;;;;;;;3.20;2.10;;;;;;;;;;4949775;28;20634;-55
2022/06/17 11:55:27;;;;;;;2.67;2.20;;;;;;;;;;4954110;28;21145;-57
2022/06/17 11:58:17;;;;;;;4.40;2.17;;;;;;;;;;4927748;28;20692;-55
2022/06/17 12:00:46;;;;;;;3.23;2.00;;;;;;;;;;4957148;28;20446;-56
2022/06/17 12:03:13;;;;;;;3.50;1.90;;;;;;;;;;4950457;28;20465;-56
2022/06/17 12:05:39;;;;;;;3.70;2.80;;;;;;;;;;4948713;28;20427;-55
2022/06/17 12:08:11;;;;;;;2.53;1.83;;;;;;;;;;4932434;28;20451;-55
2022/06/17 12:10:50;;;;;;;2.97;2.00;;;;;;;;;;4950428;28;20483;-55
2022/06/17 12:13:19;;;;;;;3.23;2.43;;;;;;;;;;4916126;28;20462;-54
2022/06/17 12:15:46;;;;;;;4.33;2.33;;;;;;;;;;4953655;28;20473;-55
2022/06/17 12:18:20;;;;;;;3.30;2.33;;;;;;;;;;4947651;28;20446;-56
2022/06/17 12:21:04;;;;;;;2.77;2.10;;;;;;;;;;4944169;28;20434;-55
2022/06/17 12:23:33;;;;;;;3.67;2.40;;;;;;;;;;4931528;28;20454;-54
2022/06/17 12:26:06;;;;;;;2.97;2.13;;;;;;;;;;4951574;28;20861;-55
2022/06/17 12:28:35;;;;;;;2.47;2.03;;;;;;;;;;4931516;28;20452;-55
2022/06/17 12:31:18;;;;;;;2.80;2.07;;;;;;;;;;4951159;28;20478;-54
2022/06/17 12:33:57;;;;;;;2.20;2.00;;;;;;;;;;4911615;28;20923;-55
2022/06/17 12:36:27;;;;;;;3.40;2.13;;;;;;;;;;4951265;28;20873;-56
2022/06/17 12:38:53;;;;;;;2.93;2.10;;;;;;;;;;4941888;28;20482;-54
2022/06/17 12:41:31;;;;;;;2.90;2.00;;;;;;;;;;4952771;28;20447;-54
2022/06/17 12:44:12;;;;;;;2.20;1.93;;;;;;;;;;4929717;28;20439;-54
2022/06/17 12:46:38;;;;;;;3.03;2.10;;;;;;;;;;4953099;28;20443;-54
2022/06/17 12:55:21;;;;;;;2.90;2.03;;;;;;;;;;4948554;28;20481;-55
2022/06/17 12:58:06;;;;;;;2.60;2.00;;;;;;;;;;4944449;28;20547;-54
2022/06/17 13:00:40;;;;;;;2.67;1.80;;;;;;;;;;4946475;28;20438;-53
2022/06/17 13:03:15;;;;;;;2.07;1.77;;;;;;;;;;4920790;28;20515;-55
2022/06/17 13:05:41;;;;;;;2.80;1.90;;;;;;;;;;4954969;28;20456;-58
2022/06/17 13:08:08;;;;;;;2.50;2.20;;;;;;;;;;4942652;28;20466;-55
2022/06/17 13:10:41;;;;;;;2.47;1.80;;;;;;;;;;4946839;28;20470;-54
2022/06/17 13:13:07;;;;;;;1.90;1.60;;;;;;;;;;4932100;28;20501;-54
2022/06/17 13:15:35;;;;;;;6.00;2.20;;;;;;;;;;4949210;28;20439;-54
2022/06/17 13:18:09;;;;;;;2.27;1.70;;;;;;;;;;4936993;28;20457;-54
2022/06/17 13:20:44;;;;;;;2.20;1.90;;;;;;;;;;4963031;28;20435;-54
2022/06/17 13:23:25;;;;;;;3.53;2.00;;;;;;;;;;4930467;28;20450;-55
2022/06/17 13:25:53;;;;;;;5.03;1.90;;;;;;;;;;4952237;28;20457;-55
2022/06/17 13:28:29;;;;;;;1.80;1.40;;;;;;;;;;4947063;28;20431;-53
2022/06/17 13:31:01;;;;;;;3.70;1.70;;;;;;;;;;4952470;28;20486;-55
2022/06/17 13:33:34;;;;;;;1.90;1.37;;;;;;;;;;4913397;28;20506;-55
2022/06/17 13:36:06;;;;;;;2.00;1.30;;;;;;;;;;4948995;28;20440;-55
2022/06/17 13:38:51;;;;;;;2.57;1.67;;;;;;;;;;4933308;28;20706;-55
2022/06/17 13:41:19;;;;;;;3.07;1.90;;;;;;;;;;4950005;28;20515;-55
2022/06/17 13:43:50;;;;;;;2.30;1.50;;;;;;;;;;4946944;28;20427;-54
2022/06/17 13:46:42;;;;;;;3.00;2.00;;;;;;;;;;4951948;28;20535;-54
2022/06/17 13:49:12;;;;;;;2.30;1.60;;;;;;;;;;4946110;28;20852;-55
2022/06/17 13:51:41;;;;;;;3.17;1.57;;;;;;;;;;4941308;28;20493;-55
2022/06/17 13:54:26;;;;;;;2.90;1.77;;;;;;;;;;4928382;28;20434;-55
2022/06/17 13:56:51;;;;;;;2.03;1.70;;;;;;;;;;4944793;28;20626;-55
2022/06/17 13:59:28;;;;;;;2.20;1.33;;;;;;;;;;4948291;28;20433;-56
2022/06/17 14:02:06;;;;;;;2.80;1.80;;;;;;;;;;4949693;28;20666;-55
2022/06/17 14:04:34;;;;;;;1.70;1.30;;;;;;;;;;4956217;28;20445;-55
2022/06/17 14:07:26;;;;;;;2.10;1.90;;;;;;;;;;4918651;28;20521;-54
2022/06/17 14:09:52;;;;;;;2.87;1.50;;;;;;;;;;4948431;28;20446;-56
2022/06/17 14:12:37;;;;;;;2.10;1.30;;;;;;;;;;4938758;28;20434;-54
2022/06/17 14:15:04;;;;;;;3.00;1.77;;;;;;;;;;4946385;28;20441;-54
2022/06/17 14:17:30;;;;;;;4.57;2.23;;;;;;;;;;4942866;28;20434;-54
2022/06/17 14:19:57;;;;;;;4.43;2.37;;;;;;;;;;4953686;28;20810;-55
2022/06/17 14:22:27;;;;;;;2.20;1.40;;;;;;;;;;4942047;28;20182;-55
2022/06/17 14:24:53;;;;;;;2.20;1.70;;;;;;;;;;4940816;28;20463;-55
2022/06/17 14:27:25;;;;;;;2.00;1.40;;;;;;;;;;4938231;28;20774;-53
2022/06/17 14:30:10;;;;;;;3.30;1.70;;;;;;;;;;4945213;28;20426;-54
2022/06/17 14:32:49;;;;;;;3.60;1.60;;;;;;;;;;4932971;28;20455;-52
2022/06/17 14:35:27;;;;;;;3.53;1.87;;;;;;;;;;4951640;28;20434;-53
2022/06/17 14:38:16;;;;;;;2.30;1.43;;;;;;;;;;4945696;28;20435;-55
2022/06/17 14:43:47;;;;;;;2.10;1.00;;;;;;;;;;4917302;28;20481;-54
2022/06/17 14:46:16;;;;;;;4.10;1.80;;;;;;;;;;4954149;28;20429;-54
2022/06/17 14:48:45;;;;;;;2.20;1.40;;;;;;;;;;4946088;28;20442;-56
2022/06/17 14:51:32;;;;;;;2.87;1.70;;;;;;;;;;4943907;28;21348;-54
2022/06/17 14:54:00;;;;;;;2.70;1.57;;;;;;;;;;4931460;28;20886;-54
2022/06/17 14:56:30;;;;;;;1.87;1.30;;;;;;;;;;4949774;28;20514;-54
2022/06/17 14:59:00;;;;;;;2.10;1.30;;;;;;;;;;4943108;28;20936;-54
2022/06/17 15:01:32;;;;;;;1.77;1.30;;;;;;;;;;4951487;28;21920;-54
2022/06/17 15:04:01;;;;;;;1.90;1.40;;;;;;;;;;4932258;28;20984;-58
2022/06/17 15:06:30;;;;;;;1.93;1.27;;;;;;;;;;4951164;28;20557;-54
2022/06/17 15:08:56;;;;;;;2.30;1.47;;;;;;;;;;4945813;28;20466;-55
2022/06/17 15:11:23;;;;;;;2.27;1.20;;;;;;;;;;4948332;28;20474;-55
2022/06/17 15:14:08;;;;;;;2.80;1.20;;;;;;;;;;4931877;28;20447;-53
2022/06/17 15:16:40;;;;;;;1.80;1.23;;;;;;;;;;4950427;28;20439;-53
2022/06/17 15:19:13;;;;;;;2.03;1.40;;;;;;;;;;4915552;28;20450;-54
2022/06/17 15:21:41;;;;;;;4.00;1.60;;;;;;;;;;4940383;28;20489;-55
2022/06/17 15:24:10;;;;;;;1.90;1.40;;;;;;;;;;4947824;28;20417;-53